createdAt,value
2018-05-09T00:04:12.006Z,10.63
2018-05-09T00:10:06.999Z,14.72
2018-05-09T00:16:02.011Z,10.88
2018-05-09T00:21:57.022Z,17.11
2018-05-09T00:27:51.996Z,12.46
2018-05-09T00:33:47.060Z,13.12
2018-05-09T00:39:42.018Z,11.17
2018-05-09T00:45:37.034Z,18.32
2018-05-09T00:51:32.093Z,13.43
2018-05-09T00:57:27.059Z,20.12
2018-05-09T01:03:22.068Z,14.67
2018-05-09T01:09:17.062Z,15.33
2018-05-09T01:15:12.067Z,15.33
2018-05-09T01:21:07.049Z,12.28
2018-05-09T01:27:02.054Z,14.07
2018-05-09T01:32:57.067Z,14.9
2018-05-09T01:38:52.039Z,15.21
2018-05-09T01:44:47.086Z,15.79
2018-05-09T01:50:42.085Z,16.46
2018-05-09T01:56:37.116Z,12.53
2018-05-09T02:02:32.046Z,19.11
2018-05-09T02:08:27.072Z,16.03
2018-05-09T02:14:22.073Z,14.63
2018-05-09T02:20:17.070Z,14.21
2018-05-09T02:26:12.087Z,12.66
2018-05-09T02:32:07.195Z,18.61
2018-05-09T02:38:02.087Z,17.16
2018-05-09T02:43:57.097Z,19.18
2018-05-09T02:49:52.153Z,19.25
2018-05-09T02:55:47.102Z,19.1
2018-05-09T03:01:42.096Z,18.76
2018-05-09T03:07:37.118Z,18.12
2018-05-09T03:13:32.088Z,14.78
2018-05-09T03:19:27.113Z,15.97
2018-05-09T03:25:22.124Z,16.23
2018-05-09T03:31:17.147Z,15.17
2018-05-09T03:37:12.126Z,17.34
2018-05-09T03:43:07.131Z,17.4
2018-05-09T03:49:02.125Z,14.97
2018-05-09T03:54:57.148Z,14.37
2018-05-09T04:00:52.127Z,15.87
2018-05-09T04:06:47.123Z,19.41
2018-05-09T04:12:42.121Z,15.77
2018-05-09T04:18:37.144Z,20
2018-05-09T04:24:32.211Z,21.53
2018-05-09T04:30:27.163Z,21.03
2018-05-09T04:36:22.125Z,17.57
2018-05-09T04:42:17.186Z,19.93
2018-05-09T04:48:12.155Z,24.32
2018-05-09T04:54:07.183Z,23.75
2018-05-09T05:00:02.178Z,23.42
2018-05-09T05:05:57.146Z,20.77
2018-05-09T05:11:52.154Z,20.09
2018-05-09T05:17:47.191Z,24.73
2018-05-09T05:23:42.164Z,21.07
2018-05-09T05:29:37.184Z,20.9
2018-05-09T05:35:32.183Z,26.56
2018-05-09T05:41:27.254Z,21.96
2018-05-09T05:47:22.164Z,22.37
2018-05-09T05:53:17.210Z,25.3
2018-05-09T05:59:12.256Z,26.57
2018-05-09T06:05:07.181Z,24.48
2018-05-09T06:11:02.208Z,25.52
2018-05-09T06:16:57.215Z,25.8
2018-05-09T06:22:52.219Z,27.66
2018-05-09T06:28:47.193Z,35.63
2018-05-09T06:34:42.249Z,31.7
2018-05-09T06:40:37.191Z,25.15
2018-05-09T06:46:32.193Z,34.11
2018-05-09T06:52:27.238Z,30.69
2018-05-09T06:58:22.245Z,39.77
2018-05-09T07:04:17.222Z,44.58
2018-05-09T07:10:12.431Z,37.88
2018-05-09T07:16:07.213Z,43.47
2018-05-09T07:22:02.238Z,40.87
2018-05-09T07:27:57.222Z,37.69
2018-05-09T07:33:52.238Z,39.37
2018-05-09T07:39:47.294Z,40.03
2018-05-09T07:45:42.263Z,44.85
2018-05-09T07:51:37.251Z,37.12
2018-05-09T07:57:32.264Z,38.85
2018-05-09T08:03:27.293Z,36.52
2018-05-09T08:09:22.301Z,41.33
2018-05-09T08:15:17.259Z,37.17
2018-05-09T08:21:12.277Z,38.64
2018-05-09T08:27:07.268Z,41.77
2018-05-09T08:33:02.289Z,42.3
2018-05-09T08:38:57.329Z,46.63
2018-05-09T08:44:52.326Z,38.45
2018-05-09T08:50:47.301Z,37.6
2018-05-09T08:56:42.266Z,40.33
2018-05-09T09:02:37.342Z,38.86
2018-05-09T09:08:32.277Z,37.64
2018-05-09T09:14:27.322Z,34.52
2018-05-09T09:20:22.337Z,43.28
2018-05-09T09:26:17.275Z,44.5
2018-05-09T09:32:12.317Z,43.32
2018-05-09T09:38:07.356Z,42.42
2018-05-09T09:44:02.341Z,37.12
2018-05-09T09:49:57.319Z,41.47
2018-05-09T09:55:52.335Z,40.67
2018-05-09T10:01:47.345Z,36.87
2018-05-09T10:07:42.385Z,39.78
2018-05-09T10:13:37.347Z,39.68
2018-05-09T10:19:32.378Z,38.9
2018-05-09T10:25:27.324Z,33.58
2018-05-09T10:31:22.358Z,40.73
2018-05-09T10:37:17.360Z,37.87
2018-05-09T10:43:12.404Z,36.8
2018-05-09T10:49:07.410Z,43.25
2018-05-09T10:55:02.393Z,38.63
2018-05-09T11:00:57.371Z,42.02
2018-05-09T11:06:52.357Z,45.82
2018-05-09T11:12:47.350Z,37.75
2018-05-09T11:18:42.353Z,46.74
2018-05-09T11:24:37.443Z,45.02
2018-05-09T11:30:32.356Z,40.33
2018-05-09T11:36:27.365Z,38.41
2018-05-09T11:42:22.374Z,41.6
2018-05-09T11:48:17.393Z,39.21
2018-05-09T11:54:12.439Z,36.83
2018-05-09T12:00:07.378Z,36.74
2018-05-09T12:06:02.373Z,40.57
2018-05-09T12:11:57.412Z,33.76
2018-05-09T12:17:52.370Z,25.56
2018-05-09T12:23:47.396Z,33.48
2018-05-09T12:29:42.404Z,31.83
2018-05-09T12:35:37.370Z,27.79
2018-05-09T12:41:32.418Z,31.74
2018-05-09T12:47:27.474Z,25.55
2018-05-09T12:53:22.415Z,30.55
2018-05-09T12:59:17.474Z,23.26
2018-05-09T13:05:12.457Z,21.32
2018-05-09T13:11:07.389Z,20.57
2018-05-09T13:17:02.441Z,16.91
2018-05-09T13:22:57.461Z,18.1
2018-05-09T13:28:52.435Z,17.24
2018-05-09T13:34:47.465Z,17.15
2018-05-09T13:40:42.461Z,18.41
2018-05-09T13:46:37.460Z,14.06
2018-05-09T13:52:32.457Z,16.91
2018-05-09T13:58:27.451Z,18.46
2018-05-09T14:04:22.473Z,7.84
2018-05-09T14:10:17.467Z,8.78
2018-05-09T14:16:12.472Z,6.37
2018-05-09T14:22:07.436Z,10.02
2018-05-09T14:28:02.528Z,6.61
2018-05-09T14:33:57.479Z,14.71
2018-05-09T14:39:52.484Z,11.46
2018-05-09T14:45:47.454Z,7.38
2018-05-09T14:51:42.482Z,9.71
2018-05-09T14:57:37.491Z,10.64
2018-05-09T15:03:32.462Z,8.27
2018-05-09T15:09:27.476Z,3.95
2018-05-09T15:15:22.518Z,8.41
2018-05-09T15:21:17.516Z,9.77
2018-05-09T15:27:12.493Z,7.36
2018-05-09T15:33:07.509Z,7.33
2018-05-09T15:39:02.622Z,9.14
2018-05-09T15:44:57.535Z,7.09
2018-05-09T15:50:52.544Z,9.75
2018-05-09T15:56:47.484Z,11.79
2018-05-09T16:02:42.516Z,4.63
2018-05-09T16:08:37.535Z,9.48
2018-05-09T16:14:32.522Z,13.6
2018-05-09T16:20:27.546Z,13.81
2018-05-09T16:26:22.546Z,9.16
2018-05-09T16:32:17.554Z,8.25
2018-05-09T16:38:12.542Z,14.94
2018-05-09T16:44:07.590Z,15.45
2018-05-09T16:50:02.557Z,14.32
2018-05-09T16:55:57.539Z,12.16
2018-05-09T17:01:52.520Z,10.68
2018-05-09T17:07:47.558Z,13.7
2018-05-09T17:13:42.595Z,16.06
2018-05-09T17:19:37.545Z,12.13
2018-05-09T17:25:32.560Z,18.21
2018-05-09T17:31:27.569Z,16.03
2018-05-09T17:37:22.620Z,7.92
2018-05-09T17:43:17.608Z,8.63
2018-05-09T17:49:12.593Z,9.91
2018-05-09T17:55:07.579Z,13.68
2018-05-09T18:01:02.584Z,10.04
2018-05-09T18:06:57.612Z,11.02
2018-05-09T18:12:52.620Z,16.04
2018-05-09T18:18:47.571Z,10.2
2018-05-09T18:24:42.594Z,10.22
2018-05-09T18:30:37.610Z,14.14
2018-05-09T18:36:32.636Z,14.74
2018-05-09T18:42:27.588Z,17
2018-05-09T18:48:22.577Z,14.22
2018-05-09T18:54:17.635Z,15.8
2018-05-09T19:00:12.609Z,13.12
2018-05-09T19:06:07.604Z,15.76
2018-05-09T19:12:02.610Z,13.94
2018-05-09T19:17:57.645Z,14.55
2018-05-09T19:23:52.677Z,12.66
2018-05-09T19:29:47.660Z,14
2018-05-09T19:35:42.643Z,16.17
2018-05-09T19:41:37.833Z,14.84
2018-05-09T19:47:32.652Z,13.33
2018-05-09T19:53:27.701Z,13.35
2018-05-09T19:59:22.652Z,13.36
2018-05-09T20:05:17.653Z,19.14
2018-05-09T20:11:12.681Z,15.42
2018-05-09T20:17:07.699Z,17.25
2018-05-09T20:23:02.660Z,16.92
2018-05-09T20:28:57.658Z,16.7
2018-05-09T20:34:52.668Z,14.3
2018-05-09T20:40:47.668Z,15.38
2018-05-09T20:46:42.700Z,17.58
2018-05-09T20:52:37.684Z,14.33
2018-05-09T20:58:32.693Z,11.41
2018-05-09T21:04:27.694Z,16.46
2018-05-09T21:10:22.758Z,13
2018-05-09T21:16:17.685Z,15.34
2018-05-09T21:22:12.723Z,20.27
2018-05-09T21:28:07.744Z,13.46
2018-05-09T21:34:02.701Z,16.92
2018-05-09T21:39:57.717Z,27.98
2018-05-09T21:45:52.705Z,21.55
2018-05-09T21:51:47.711Z,20.17
2018-05-09T21:57:42.809Z,25.63
2018-05-09T22:03:37.717Z,18.92
2018-05-09T22:09:32.734Z,25.63
2018-05-09T22:15:27.712Z,19.9
2018-05-09T22:21:22.753Z,22.33
2018-05-09T22:27:17.743Z,23.51
2018-05-09T22:33:12.821Z,22.02
2018-05-09T22:39:07.783Z,24.81
2018-05-09T22:45:03.311Z,19.96
2018-05-09T22:50:57.769Z,25.16
2018-05-09T22:56:52.792Z,20.44
2018-05-09T23:02:47.754Z,23.03
2018-05-09T23:08:42.792Z,24
2018-05-09T23:14:37.732Z,21.55
2018-05-09T23:20:32.755Z,26.35
2018-05-09T23:26:27.770Z,19
2018-05-09T23:32:22.769Z,17.14
2018-05-09T23:38:17.775Z,18.44
2018-05-09T23:44:12.788Z,17.72
2018-05-09T23:50:07.755Z,20.53
2018-05-09T23:56:02.811Z,18.99
